sensor_id;sensor_type;location;lat;lon;timestamp;temperature;humidity
36444;DHT22;24692;45.642;13.806;2022-08-25T00:00:45;24.70;99.90
36444;DHT22;24692;45.642;13.806;2022-08-25T00:03:13;24.70;99.90
36444;DHT22;24692;45.642;13.806;2022-08-25T00:05:39;24.70;99.90
36444;DHT22;24692;45.642;13.806;2022-08-25T00:08:05;24.60;99.90
36444;DHT22;24692;45.642;13.806;2022-08-25T00:10:37;24.60;99.90
36444;DHT22;24692;45.642;13.806;2022-08-25T00:13:03;24.60;99.90
36444;DHT22;24692;45.642;13.806;2022-08-25T00:15:29;24.60;99.90
36444;DHT22;24692;45.642;13.806;2022-08-25T00:17:57;24.60;99.90
36444;DHT22;24692;45.642;13.806;2022-08-25T00:20:24;24.60;99.90
36444;DHT22;24692;45.642;13.806;2022-08-25T00:22:50;24.60;99.90
36444;DHT22;24692;45.642;13.806;2022-08-25T00:25:16;24.60;99.90
36444;DHT22;24692;45.642;13.806;2022-08-25T00:27:42;24.60;99.90
36444;DHT22;24692;45.642;13.806;2022-08-25T00:30:08;24.60;99.90
36444;DHT22;24692;45.642;13.806;2022-08-25T00:32:34;24.60;99.90
36444;DHT22;24692;45.642;13.806;2022-08-25T00:35:00;24.50;99.90
36444;DHT22;24692;45.642;13.806;2022-08-25T00:37:26;24.50;99.90
36444;DHT22;24692;45.642;13.806;2022-08-25T00:39:52;24.50;99.90
36444;DHT22;24692;45.642;13.806;2022-08-25T00:42:19;24.50;99.90
36444;DHT22;24692;45.642;13.806;2022-08-25T00:44:45;24.50;99.90
36444;DHT22;24692;45.642;13.806;2022-08-25T00:47:11;24.40;99.90
36444;DHT22;24692;45.642;13.806;2022-08-25T00:50:05;24.40;99.90
36444;DHT22;24692;45.642;13.806;2022-08-25T00:52:36;24.40;99.90
36444;DHT22;24692;45.642;13.806;2022-08-25T00:55:08;24.40;99.90
36444;DHT22;24692;45.642;13.806;2022-08-25T00:58:23;24.40;99.90
36444;DHT22;24692;45.642;13.806;2022-08-25T01:00:53;24.40;99.90
36444;DHT22;24692;45.642;13.806;2022-08-25T01:03:19;24.40;99.90
36444;DHT22;24692;45.642;13.806;2022-08-25T01:05:46;24.40;99.90
36444;DHT22;24692;45.642;13.806;2022-08-25T01:08:13;24.30;99.90
36444;DHT22;24692;45.642;13.806;2022-08-25T01:10:40;24.40;99.90
36444;DHT22;24692;45.642;13.806;2022-08-25T01:13:14;24.40;99.90
36444;DHT22;24692;45.642;13.806;2022-08-25T01:15:43;24.30;99.90
36444;DHT22;24692;45.642;13.806;2022-08-25T01:18:09;24.30;99.90
36444;DHT22;24692;45.642;13.806;2022-08-25T01:20:36;24.20;99.90
36444;DHT22;24692;45.642;13.806;2022-08-25T01:23:02;24.20;99.90
36444;DHT22;24692;45.642;13.806;2022-08-25T01:26:03;24.20;99.90
36444;DHT22;24692;45.642;13.806;2022-08-25T01:28:30;24.20;99.90
36444;DHT22;24692;45.642;13.806;2022-08-25T01:30:56;24.30;99.90
36444;DHT22;24692;45.642;13.806;2022-08-25T01:33:22;24.30;99.90
36444;DHT22;24692;45.642;13.806;2022-08-25T01:35:48;24.30;99.90
36444;DHT22;24692;45.642;13.806;2022-08-25T01:38:14;24.30;99.90
36444;DHT22;24692;45.642;13.806;2022-08-25T01:40:40;24.20;99.90
36444;DHT22;24692;45.642;13.806;2022-08-25T01:45:37;24.30;99.90
36444;DHT22;24692;45.642;13.806;2022-08-25T01:48:04;24.20;99.90
36444;DHT22;24692;45.642;13.806;2022-08-25T01:50:30;24.20;99.90
36444;DHT22;24692;45.642;13.806;2022-08-25T01:53:03;24.20;99.90
36444;DHT22;24692;45.642;13.806;2022-08-25T01:55:31;24.20;99.90
36444;DHT22;24692;45.642;13.806;2022-08-25T01:58:20;24.20;99.90
36444;DHT22;24692;45.642;13.806;2022-08-25T02:00:49;24.20;99.90
36444;DHT22;24692;45.642;13.806;2022-08-25T02:03:15;24.20;99.90
36444;DHT22;24692;45.642;13.806;2022-08-25T02:05:42;24.20;99.90
36444;DHT22;24692;45.642;13.806;2022-08-25T02:08:08;24.30;99.90
36444;DHT22;24692;45.642;13.806;2022-08-25T02:10:34;24.20;99.90
36444;DHT22;24692;45.642;13.806;2022-08-25T02:13:00;24.20;99.90
36444;DHT22;24692;45.642;13.806;2022-08-25T02:15:26;24.20;99.90
36444;DHT22;24692;45.642;13.806;2022-08-25T02:17:51;24.20;99.90
36444;DHT22;24692;45.642;13.806;2022-08-25T02:20:17;24.20;99.90
36444;DHT22;24692;45.642;13.806;2022-08-25T02:22:43;24.20;99.90
36444;DHT22;24692;45.642;13.806;2022-08-25T02:25:09;24.20;99.90
36444;DHT22;24692;45.642;13.806;2022-08-25T02:27:36;24.20;99.90
36444;DHT22;24692;45.642;13.806;2022-08-25T02:30:03;24.20;99.90
36444;DHT22;24692;45.642;13.806;2022-08-25T02:32:29;24.20;99.90
36444;DHT22;24692;45.642;13.806;2022-08-25T02:34:55;24.20;99.90
36444;DHT22;24692;45.642;13.806;2022-08-25T02:37:21;24.30;99.90
36444;DHT22;24692;45.642;13.806;2022-08-25T02:39:47;24.20;99.90
36444;DHT22;24692;45.642;13.806;2022-08-25T02:42:13;24.20;99.90
36444;DHT22;24692;45.642;13.806;2022-08-25T02:44:39;24.30;99.90
36444;DHT22;24692;45.642;13.806;2022-08-25T02:47:05;24.20;99.90
36444;DHT22;24692;45.642;13.806;2022-08-25T02:49:31;24.20;99.90
36444;DHT22;24692;45.642;13.806;2022-08-25T02:51:57;24.30;99.90
36444;DHT22;24692;45.642;13.806;2022-08-25T02:54:25;24.30;99.90
36444;DHT22;24692;45.642;13.806;2022-08-25T02:56:51;24.20;99.90
36444;DHT22;24692;45.642;13.806;2022-08-25T02:59:17;24.20;99.90
36444;DHT22;24692;45.642;13.806;2022-08-25T03:01:44;24.30;99.90
36444;DHT22;24692;45.642;13.806;2022-08-25T03:04:10;24.30;99.90
36444;DHT22;24692;45.642;13.806;2022-08-25T03:06:36;24.20;99.90
36444;DHT22;24692;45.642;13.806;2022-08-25T03:09:02;24.20;99.90
36444;DHT22;24692;45.642;13.806;2022-08-25T03:11:29;24.20;99.90
36444;DHT22;24692;45.642;13.806;2022-08-25T03:13:56;24.10;99.90
36444;DHT22;24692;45.642;13.806;2022-08-25T03:16:22;24.10;99.90
36444;DHT22;24692;45.642;13.806;2022-08-25T03:18:48;24.10;99.90
36444;DHT22;24692;45.642;13.806;2022-08-25T03:21:15;24.10;99.90
36444;DHT22;24692;45.642;13.806;2022-08-25T03:23:41;24.10;99.90
36444;DHT22;24692;45.642;13.806;2022-08-25T03:26:07;24.10;99.90
36444;DHT22;24692;45.642;13.806;2022-08-25T03:28:52;24.10;99.90
36444;DHT22;24692;45.642;13.806;2022-08-25T03:31:21;24.10;99.90
36444;DHT22;24692;45.642;13.806;2022-08-25T03:33:47;24.10;99.90
36444;DHT22;24692;45.642;13.806;2022-08-25T03:36:14;24.10;99.90
36444;DHT22;24692;45.642;13.806;2022-08-25T03:38:40;24.00;99.90
36444;DHT22;24692;45.642;13.806;2022-08-25T03:41:30;24.00;99.90
36444;DHT22;24692;45.642;13.806;2022-08-25T03:44:00;24.00;99.90
36444;DHT22;24692;45.642;13.806;2022-08-25T03:46:47;24.00;99.90
36444;DHT22;24692;45.642;13.806;2022-08-25T03:49:22;24.00;99.90
36444;DHT22;24692;45.642;13.806;2022-08-25T03:51:50;24.00;99.90
36444;DHT22;24692;45.642;13.806;2022-08-25T03:54:20;24.00;99.90
36444;DHT22;24692;45.642;13.806;2022-08-25T03:56:46;24.00;99.90
36444;DHT22;24692;45.642;13.806;2022-08-25T03:59:12;24.00;99.90
36444;DHT22;24692;45.642;13.806;2022-08-25T04:01:40;24.00;99.90
36444;DHT22;24692;45.642;13.806;2022-08-25T04:04:08;24.00;99.90
36444;DHT22;24692;45.642;13.806;2022-08-25T04:06:34;24.00;99.90
36444;DHT22;24692;45.642;13.806;2022-08-25T04:08:59;24.00;99.90
36444;DHT22;24692;45.642;13.806;2022-08-25T04:11:26;24.00;99.90
36444;DHT22;24692;45.642;13.806;2022-08-25T04:13:54;24.00;99.90
36444;DHT22;24692;45.642;13.806;2022-08-25T04:19:24;23.90;99.90
36444;DHT22;24692;45.642;13.806;2022-08-25T04:21:51;24.00;99.90
36444;DHT22;24692;45.642;13.806;2022-08-25T04:24:17;24.00;99.90
36444;DHT22;24692;45.642;13.806;2022-08-25T04:26:48;23.90;99.90
36444;DHT22;24692;45.642;13.806;2022-08-25T04:29:18;23.90;99.90
36444;DHT22;24692;45.642;13.806;2022-08-25T04:31:45;23.90;99.90
36444;DHT22;24692;45.642;13.806;2022-08-25T04:34:12;24.00;99.90
36444;DHT22;24692;45.642;13.806;2022-08-25T04:36:38;24.00;99.90
36444;DHT22;24692;45.642;13.806;2022-08-25T04:39:04;24.00;99.90
36444;DHT22;24692;45.642;13.806;2022-08-25T04:41:30;24.00;99.90
36444;DHT22;24692;45.642;13.806;2022-08-25T04:43:58;24.00;99.90
36444;DHT22;24692;45.642;13.806;2022-08-25T04:46:27;24.00;99.90
36444;DHT22;24692;45.642;13.806;2022-08-25T04:48:55;24.10;99.90
36444;DHT22;24692;45.642;13.806;2022-08-25T04:51:24;24.10;99.90
36444;DHT22;24692;45.642;13.806;2022-08-25T04:53:50;24.10;99.90
36444;DHT22;24692;45.642;13.806;2022-08-25T04:56:20;24.10;99.90
36444;DHT22;24692;45.642;13.806;2022-08-25T04:58:49;24.20;99.90
36444;DHT22;24692;45.642;13.806;2022-08-25T05:01:17;24.20;99.90
36444;DHT22;24692;45.642;13.806;2022-08-25T05:03:45;24.20;99.90
36444;DHT22;24692;45.642;13.806;2022-08-25T05:06:12;24.30;99.90
36444;DHT22;24692;45.642;13.806;2022-08-25T05:08:38;24.40;99.90
36444;DHT22;24692;45.642;13.806;2022-08-25T05:11:09;24.40;99.90
36444;DHT22;24692;45.642;13.806;2022-08-25T05:13:37;24.50;99.90
36444;DHT22;24692;45.642;13.806;2022-08-25T05:16:04;24.50;99.90
36444;DHT22;24692;45.642;13.806;2022-08-25T05:18:31;24.60;99.90
36444;DHT22;24692;45.642;13.806;2022-08-25T05:21:03;24.60;99.90
36444;DHT22;24692;45.642;13.806;2022-08-25T05:23:29;24.70;99.90
36444;DHT22;24692;45.642;13.806;2022-08-25T05:26:00;24.70;99.90
36444;DHT22;24692;45.642;13.806;2022-08-25T05:28:25;24.80;99.90
36444;DHT22;24692;45.642;13.806;2022-08-25T05:30:57;24.80;99.90
36444;DHT22;24692;45.642;13.806;2022-08-25T05:33:23;24.90;99.90
36444;DHT22;24692;45.642;13.806;2022-08-25T05:35:48;25.00;99.90
36444;DHT22;24692;45.642;13.806;2022-08-25T05:38:14;25.10;99.90
36444;DHT22;24692;45.642;13.806;2022-08-25T05:40:40;25.20;99.90
36444;DHT22;24692;45.642;13.806;2022-08-25T05:43:06;25.20;99.90
36444;DHT22;24692;45.642;13.806;2022-08-25T05:45:31;25.20;99.90
36444;DHT22;24692;45.642;13.806;2022-08-25T05:47:57;25.30;99.90
36444;DHT22;24692;45.642;13.806;2022-08-25T05:50:23;25.40;99.90
36444;DHT22;24692;45.642;13.806;2022-08-25T05:52:49;25.50;99.90
36444;DHT22;24692;45.642;13.806;2022-08-25T05:55:14;25.50;99.90
36444;DHT22;24692;45.642;13.806;2022-08-25T05:57:41;25.50;99.90
36444;DHT22;24692;45.642;13.806;2022-08-25T06:00:08;25.70;99.90
36444;DHT22;24692;45.642;13.806;2022-08-25T06:02:34;25.80;99.90
36444;DHT22;24692;45.642;13.806;2022-08-25T06:05:07;25.80;99.90
36444;DHT22;24692;45.642;13.806;2022-08-25T06:07:33;25.90;99.90
36444;DHT22;24692;45.642;13.806;2022-08-25T06:10:02;26.00;99.90
36444;DHT22;24692;45.642;13.806;2022-08-25T06:12:28;26.10;99.90
36444;DHT22;24692;45.642;13.806;2022-08-25T06:14:55;26.30;99.90
36444;DHT22;24692;45.642;13.806;2022-08-25T06:17:20;26.20;99.90
36444;DHT22;24692;45.642;13.806;2022-08-25T06:19:47;26.20;99.90
36444;DHT22;24692;45.642;13.806;2022-08-25T06:22:12;26.40;99.90
36444;DHT22;24692;45.642;13.806;2022-08-25T06:24:38;26.40;99.90
36444;DHT22;24692;45.642;13.806;2022-08-25T06:27:04;26.50;99.90
36444;DHT22;24692;45.642;13.806;2022-08-25T06:29:29;26.60;99.90
36444;DHT22;24692;45.642;13.806;2022-08-25T06:31:55;26.70;99.90
36444;DHT22;24692;45.642;13.806;2022-08-25T06:34:21;26.70;99.90
36444;DHT22;24692;45.642;13.806;2022-08-25T06:36:48;26.70;99.90
36444;DHT22;24692;45.642;13.806;2022-08-25T06:39:15;26.80;99.90
36444;DHT22;24692;45.642;13.806;2022-08-25T06:41:41;26.80;99.90
36444;DHT22;24692;45.642;13.806;2022-08-25T06:44:06;26.70;99.90
36444;DHT22;24692;45.642;13.806;2022-08-25T06:46:33;26.70;99.90
36444;DHT22;24692;45.642;13.806;2022-08-25T06:48:59;26.80;99.90
36444;DHT22;24692;45.642;13.806;2022-08-25T06:51:25;26.90;99.90
36444;DHT22;24692;45.642;13.806;2022-08-25T06:53:52;27.00;99.90
36444;DHT22;24692;45.642;13.806;2022-08-25T06:56:19;27.20;99.90
36444;DHT22;24692;45.642;13.806;2022-08-25T06:58:47;27.30;99.90
36444;DHT22;24692;45.642;13.806;2022-08-25T07:01:15;27.50;99.90
36444;DHT22;24692;45.642;13.806;2022-08-25T07:03:41;27.70;99.90
36444;DHT22;24692;45.642;13.806;2022-08-25T07:06:07;27.80;99.90
36444;DHT22;24692;45.642;13.806;2022-08-25T07:08:34;27.80;99.90
36444;DHT22;24692;45.642;13.806;2022-08-25T07:11:10;27.50;99.90
36444;DHT22;24692;45.642;13.806;2022-08-25T07:13:36;27.60;99.90
36444;DHT22;24692;45.642;13.806;2022-08-25T07:16:06;27.70;99.90
36444;DHT22;24692;45.642;13.806;2022-08-25T07:18:33;27.70;99.90
36444;DHT22;24692;45.642;13.806;2022-08-25T07:20:59;27.90;99.90
36444;DHT22;24692;45.642;13.806;2022-08-25T07:23:25;27.90;99.90
36444;DHT22;24692;45.642;13.806;2022-08-25T07:25:51;28.00;99.90
36444;DHT22;24692;45.642;13.806;2022-08-25T07:28:17;28.00;99.90
36444;DHT22;24692;45.642;13.806;2022-08-25T07:30:44;27.90;99.90
36444;DHT22;24692;45.642;13.806;2022-08-25T07:33:10;28.00;99.90
36444;DHT22;24692;45.642;13.806;2022-08-25T07:35:35;28.20;99.90
36444;DHT22;24692;45.642;13.806;2022-08-25T07:38:02;28.20;99.90
36444;DHT22;24692;45.642;13.806;2022-08-25T07:40:34;28.30;99.90
36444;DHT22;24692;45.642;13.806;2022-08-25T07:43:03;28.30;99.90
36444;DHT22;24692;45.642;13.806;2022-08-25T07:45:31;28.50;99.90
36444;DHT22;24692;45.642;13.806;2022-08-25T07:48:09;28.30;99.90
36444;DHT22;24692;45.642;13.806;2022-08-25T07:50:37;28.40;99.90
36444;DHT22;24692;45.642;13.806;2022-08-25T07:53:04;28.70;99.90
36444;DHT22;24692;45.642;13.806;2022-08-25T07:55:30;28.80;99.90
36444;DHT22;24692;45.642;13.806;2022-08-25T07:57:57;28.80;99.90
36444;DHT22;24692;45.642;13.806;2022-08-25T08:00:26;28.70;99.90
36444;DHT22;24692;45.642;13.806;2022-08-25T08:02:55;28.90;99.90
36444;DHT22;24692;45.642;13.806;2022-08-25T08:05:21;29.10;99.90
36444;DHT22;24692;45.642;13.806;2022-08-25T08:07:47;29.40;99.90
36444;DHT22;24692;45.642;13.806;2022-08-25T08:10:14;29.60;99.90
36444;DHT22;24692;45.642;13.806;2022-08-25T08:12:40;29.80;99.90
36444;DHT22;24692;45.642;13.806;2022-08-25T08:15:07;29.80;99.90
36444;DHT22;24692;45.642;13.806;2022-08-25T08:20:55;30.00;99.90
36444;DHT22;24692;45.642;13.806;2022-08-25T08:23:21;29.80;99.90
36444;DHT22;24692;45.642;13.806;2022-08-25T08:25:52;29.70;99.90
36444;DHT22;24692;45.642;13.806;2022-08-25T08:28:17;29.70;99.90
36444;DHT22;24692;45.642;13.806;2022-08-25T08:30:43;30.10;99.90
36444;DHT22;24692;45.642;13.806;2022-08-25T08:33:09;31.20;99.90
36444;DHT22;24692;45.642;13.806;2022-08-25T08:35:34;32.50;99.90
36444;DHT22;24692;45.642;13.806;2022-08-25T08:38:00;33.40;99.90
36444;DHT22;24692;45.642;13.806;2022-08-25T08:40:26;34.50;99.90
36444;DHT22;24692;45.642;13.806;2022-08-25T08:43:05;35.10;99.90
36444;DHT22;24692;45.642;13.806;2022-08-25T08:45:37;35.50;99.90
36444;DHT22;24692;45.642;13.806;2022-08-25T08:48:20;36.00;99.90
36444;DHT22;24692;45.642;13.806;2022-08-25T08:53:50;36.20;99.90
36444;DHT22;24692;45.642;13.806;2022-08-25T08:56:44;35.80;99.90
36444;DHT22;24692;45.642;13.806;2022-08-25T08:59:16;37.00;99.90
36444;DHT22;24692;45.642;13.806;2022-08-25T09:01:47;38.10;99.90
36444;DHT22;24692;45.642;13.806;2022-08-25T09:07:03;36.00;99.90
36444;DHT22;24692;45.642;13.806;2022-08-25T09:09:35;35.90;99.90
36444;DHT22;24692;45.642;13.806;2022-08-25T09:13:01;35.90;99.90
36444;DHT22;24692;45.642;13.806;2022-08-25T09:18:57;36.00;99.90
36444;DHT22;24692;45.642;13.806;2022-08-25T09:30:21;34.40;99.90
36444;DHT22;24692;45.642;13.806;2022-08-25T09:32:50;34.30;99.90
36444;DHT22;24692;45.642;13.806;2022-08-25T09:35:26;34.40;99.90
36444;DHT22;24692;45.642;13.806;2022-08-25T09:38:01;34.60;99.90
36444;DHT22;24692;45.642;13.806;2022-08-25T09:40:34;34.40;99.90
36444;DHT22;24692;45.642;13.806;2022-08-25T09:43:02;35.20;99.90
36444;DHT22;24692;45.642;13.806;2022-08-25T09:45:42;36.30;99.90
36444;DHT22;24692;45.642;13.806;2022-08-25T09:50:47;36.60;99.90
36444;DHT22;24692;45.642;13.806;2022-08-25T09:53:15;36.70;99.90
36444;DHT22;24692;45.642;13.806;2022-08-25T09:55:50;37.60;99.90
36444;DHT22;24692;45.642;13.806;2022-08-25T09:58:22;38.30;99.90
36444;DHT22;24692;45.642;13.806;2022-08-25T10:04:10;37.30;99.90
36444;DHT22;24692;45.642;13.806;2022-08-25T10:06:44;36.90;99.90
36444;DHT22;24692;45.642;13.806;2022-08-25T10:09:32;37.40;99.90
36444;DHT22;24692;45.642;13.806;2022-08-25T10:12:00;38.00;99.90
36444;DHT22;24692;45.642;13.806;2022-08-25T10:14:36;36.60;99.90
36444;DHT22;24692;45.642;13.806;2022-08-25T10:17:24;36.80;99.90
36444;DHT22;24692;45.642;13.806;2022-08-25T10:22:40;37.30;99.90
36444;DHT22;24692;45.642;13.806;2022-08-25T10:25:10;37.40;99.90
36444;DHT22;24692;45.642;13.806;2022-08-25T10:27:42;37.90;99.90
36444;DHT22;24692;45.642;13.806;2022-08-25T10:38:57;37.40;99.90
36444;DHT22;24692;45.642;13.806;2022-08-25T10:41:54;36.10;99.90
36444;DHT22;24692;45.642;13.806;2022-08-25T10:53:30;37.30;99.90
36444;DHT22;24692;45.642;13.806;2022-08-25T10:56:25;36.90;99.90
36444;DHT22;24692;45.642;13.806;2022-08-25T11:01:54;38.00;99.90
36444;DHT22;24692;45.642;13.806;2022-08-25T11:12:57;37.30;99.90
36444;DHT22;24692;45.642;13.806;2022-08-25T11:15:30;38.20;99.90
36444;DHT22;24692;45.642;13.806;2022-08-25T11:18:07;38.50;99.90
36444;DHT22;24692;45.642;13.806;2022-08-25T11:21:02;37.90;99.90
36444;DHT22;24692;45.642;13.806;2022-08-25T11:26:12;39.10;99.90
36444;DHT22;24692;45.642;13.806;2022-08-25T11:28:55;39.30;99.90
36444;DHT22;24692;45.642;13.806;2022-08-25T11:31:24;39.60;99.90
36444;DHT22;24692;45.642;13.806;2022-08-25T11:33:52;38.90;99.90
36444;DHT22;24692;45.642;13.806;2022-08-25T11:36:34;38.90;99.90
36444;DHT22;24692;45.642;13.806;2022-08-25T11:51:57;38.70;99.90
36444;DHT22;24692;45.642;13.806;2022-08-25T11:54:42;39.00;99.90
36444;DHT22;24692;45.642;13.806;2022-08-25T11:57:22;39.60;99.90
36444;DHT22;24692;45.642;13.806;2022-08-25T12:10:18;39.40;99.90
36444;DHT22;24692;45.642;13.806;2022-08-25T12:18:12;40.20;99.90
36444;DHT22;24692;45.642;13.806;2022-08-25T12:23:44;41.10;99.90
36444;DHT22;24692;45.642;13.806;2022-08-25T12:29:03;40.60;99.60
36444;DHT22;24692;45.642;13.806;2022-08-25T12:42:33;40.90;99.60
36444;DHT22;24692;45.642;13.806;2022-08-25T12:45:30;41.10;98.90
36444;DHT22;24692;45.642;13.806;2022-08-25T12:59:53;40.60;98.20
36444;DHT22;24692;45.642;13.806;2022-08-25T13:03:15;40.00;98.90
36444;DHT22;24692;45.642;13.806;2022-08-25T13:11:46;40.20;98.70
36444;DHT22;24692;45.642;13.806;2022-08-25T13:14:33;39.90;97.80
36444;DHT22;24692;45.642;13.806;2022-08-25T13:17:02;40.40;98.30
36444;DHT22;24692;45.642;13.806;2022-08-25T13:19:28;40.70;98.10
36444;DHT22;24692;45.642;13.806;2022-08-25T13:21:55;41.10;97.60
36444;DHT22;24692;45.642;13.806;2022-08-25T13:24:25;40.30;96.40
36444;DHT22;24692;45.642;13.806;2022-08-25T13:27:21;40.00;97.10
36444;DHT22;24692;45.642;13.806;2022-08-25T13:29:57;39.80;97.90
36444;DHT22;24692;45.642;13.806;2022-08-25T13:32:34;39.60;97.30
36444;DHT22;24692;45.642;13.806;2022-08-25T13:35:17;40.50;97.60
36444;DHT22;24692;45.642;13.806;2022-08-25T13:37:43;41.20;96.80
36444;DHT22;24692;45.642;13.806;2022-08-25T13:40:23;41.70;96.00
36444;DHT22;24692;45.642;13.806;2022-08-25T13:42:55;41.50;96.60
36444;DHT22;24692;45.642;13.806;2022-08-25T13:45:27;41.90;96.00
36444;DHT22;24692;45.642;13.806;2022-08-25T13:47:54;41.90;94.90
36444;DHT22;24692;45.642;13.806;2022-08-25T13:53:20;41.50;95.40
36444;DHT22;24692;45.642;13.806;2022-08-25T13:55:51;40.50;96.10
36444;DHT22;24692;45.642;13.806;2022-08-25T13:58:29;40.90;95.50
36444;DHT22;24692;45.642;13.806;2022-08-25T14:03:47;39.50;95.00
36444;DHT22;24692;45.642;13.806;2022-08-25T14:09:04;39.90;94.50
36444;DHT22;24692;45.642;13.806;2022-08-25T14:11:55;40.70;94.20
36444;DHT22;24692;45.642;13.806;2022-08-25T14:17:04;41.00;94.70
36444;DHT22;24692;45.642;13.806;2022-08-25T14:19:31;40.30;95.30
36444;DHT22;24692;45.642;13.806;2022-08-25T14:21:58;40.20;94.80
36444;DHT22;24692;45.642;13.806;2022-08-25T14:24:30;39.00;95.50
36444;DHT22;24692;45.642;13.806;2022-08-25T14:26:57;38.30;96.50
36444;DHT22;24692;45.642;13.806;2022-08-25T14:29:23;38.90;96.30
36444;DHT22;24692;45.642;13.806;2022-08-25T14:31:49;39.40;95.80
36444;DHT22;24692;45.642;13.806;2022-08-25T14:34:29;39.70;94.90
36444;DHT22;24692;45.642;13.806;2022-08-25T14:36:57;39.80;95.70
36444;DHT22;24692;45.642;13.806;2022-08-25T14:39:25;40.10;94.70
36444;DHT22;24692;45.642;13.806;2022-08-25T14:41:51;40.30;94.70
36444;DHT22;24692;45.642;13.806;2022-08-25T14:44:18;40.40;94.20
36444;DHT22;24692;45.642;13.806;2022-08-25T14:46:51;40.20;95.00
36444;DHT22;24692;45.642;13.806;2022-08-25T14:49:23;39.40;95.10
36444;DHT22;24692;45.642;13.806;2022-08-25T14:51:52;38.70;95.70
36444;DHT22;24692;45.642;13.806;2022-08-25T14:54:18;37.80;95.50
36444;DHT22;24692;45.642;13.806;2022-08-25T14:56:47;37.50;96.10
36444;DHT22;24692;45.642;13.806;2022-08-25T14:59:13;37.10;96.00
36444;DHT22;24692;45.642;13.806;2022-08-25T15:01:40;37.30;96.60
36444;DHT22;24692;45.642;13.806;2022-08-25T15:04:18;37.80;96.80
36444;DHT22;24692;45.642;13.806;2022-08-25T15:06:45;37.10;96.90
36444;DHT22;24692;45.642;13.806;2022-08-25T15:09:14;36.50;97.20
36444;DHT22;24692;45.642;13.806;2022-08-25T15:11:55;36.50;97.80
36444;DHT22;24692;45.642;13.806;2022-08-25T15:14:23;36.60;97.50
36444;DHT22;24692;45.642;13.806;2022-08-25T15:16:56;36.10;96.90
36444;DHT22;24692;45.642;13.806;2022-08-25T15:19:24;35.50;97.30
36444;DHT22;24692;45.642;13.806;2022-08-25T15:21:50;35.20;97.70
36444;DHT22;24692;45.642;13.806;2022-08-25T15:24:17;35.30;98.10
36444;DHT22;24692;45.642;13.806;2022-08-25T15:26:50;36.00;98.50
36444;DHT22;24692;45.642;13.806;2022-08-25T15:29:17;37.20;97.70
36444;DHT22;24692;45.642;13.806;2022-08-25T15:31:43;37.80;97.60
36444;DHT22;24692;45.642;13.806;2022-08-25T15:34:08;38.10;97.10
36444;DHT22;24692;45.642;13.806;2022-08-25T15:36:34;37.70;97.20
36444;DHT22;24692;45.642;13.806;2022-08-25T15:39:01;37.30;97.30
36444;DHT22;24692;45.642;13.806;2022-08-25T15:41:27;37.50;97.90
36444;DHT22;24692;45.642;13.806;2022-08-25T15:43:55;37.70;97.70
36444;DHT22;24692;45.642;13.806;2022-08-25T15:46:23;37.90;97.70
36444;DHT22;24692;45.642;13.806;2022-08-25T15:48:49;37.90;97.90
36444;DHT22;24692;45.642;13.806;2022-08-25T15:51:16;37.40;97.80
36444;DHT22;24692;45.642;13.806;2022-08-25T15:53:43;36.60;98.90
36444;DHT22;24692;45.642;13.806;2022-08-25T15:56:09;35.60;99.60
36444;DHT22;24692;45.642;13.806;2022-08-25T15:58:39;35.00;99.90
36444;DHT22;24692;45.642;13.806;2022-08-25T16:01:05;34.60;99.90
36444;DHT22;24692;45.642;13.806;2022-08-25T16:03:31;34.20;99.90
36444;DHT22;24692;45.642;13.806;2022-08-25T16:06:02;34.00;99.90
36444;DHT22;24692;45.642;13.806;2022-08-25T16:08:28;33.80;99.90
36444;DHT22;24692;45.642;13.806;2022-08-25T16:10:54;33.60;99.90
36444;DHT22;24692;45.642;13.806;2022-08-25T16:13:19;33.40;99.90
36444;DHT22;24692;45.642;13.806;2022-08-25T16:15:47;33.20;99.90
36444;DHT22;24692;45.642;13.806;2022-08-25T16:18:14;33.20;99.90
36444;DHT22;24692;45.642;13.806;2022-08-25T16:20:43;33.20;99.90
36444;DHT22;24692;45.642;13.806;2022-08-25T16:23:09;33.20;99.90
36444;DHT22;24692;45.642;13.806;2022-08-25T16:25:39;33.00;99.90
36444;DHT22;24692;45.642;13.806;2022-08-25T16:28:04;32.50;99.90
36444;DHT22;24692;45.642;13.806;2022-08-25T16:30:30;32.30;99.90
36444;DHT22;24692;45.642;13.806;2022-08-25T16:32:56;32.10;99.90
36444;DHT22;24692;45.642;13.806;2022-08-25T16:35:21;31.90;99.90
36444;DHT22;24692;45.642;13.806;2022-08-25T16:37:47;31.90;99.90
36444;DHT22;24692;45.642;13.806;2022-08-25T16:40:14;31.90;99.90
36444;DHT22;24692;45.642;13.806;2022-08-25T16:42:39;31.80;99.90
36444;DHT22;24692;45.642;13.806;2022-08-25T16:45:05;31.80;99.90
36444;DHT22;24692;45.642;13.806;2022-08-25T16:47:34;31.80;99.90
36444;DHT22;24692;45.642;13.806;2022-08-25T16:50:04;31.80;99.90
36444;DHT22;24692;45.642;13.806;2022-08-25T16:52:31;31.80;99.90
36444;DHT22;24692;45.642;13.806;2022-08-25T16:55:16;31.80;99.90
36444;DHT22;24692;45.642;13.806;2022-08-25T16:57:48;31.70;99.90
36444;DHT22;24692;45.642;13.806;2022-08-25T17:00:18;31.60;99.90
36444;DHT22;24692;45.642;13.806;2022-08-25T17:02:46;31.50;99.90
36444;DHT22;24692;45.642;13.806;2022-08-25T17:05:13;31.20;99.90
36444;DHT22;24692;45.642;13.806;2022-08-25T17:07:39;31.00;99.90
36444;DHT22;24692;45.642;13.806;2022-08-25T17:10:05;30.80;99.90
36444;DHT22;24692;45.642;13.806;2022-08-25T17:12:32;30.60;99.90
36444;DHT22;24692;45.642;13.806;2022-08-25T17:14:57;30.50;99.90
36444;DHT22;24692;45.642;13.806;2022-08-25T17:17:23;30.40;99.90
36444;DHT22;24692;45.642;13.806;2022-08-25T17:19:49;30.40;99.90
36444;DHT22;24692;45.642;13.806;2022-08-25T17:22:15;30.30;99.90
36444;DHT22;24692;45.642;13.806;2022-08-25T17:24:42;30.20;99.90
36444;DHT22;24692;45.642;13.806;2022-08-25T17:27:08;30.00;99.90
36444;DHT22;24692;45.642;13.806;2022-08-25T17:29:34;30.00;99.90
36444;DHT22;24692;45.642;13.806;2022-08-25T17:32:01;29.80;99.90
36444;DHT22;24692;45.642;13.806;2022-08-25T17:34:28;29.80;99.90
36444;DHT22;24692;45.642;13.806;2022-08-25T17:36:55;29.70;99.90
36444;DHT22;24692;45.642;13.806;2022-08-25T17:39:21;29.60;99.90
36444;DHT22;24692;45.642;13.806;2022-08-25T17:41:47;29.50;99.90
36444;DHT22;24692;45.642;13.806;2022-08-25T17:44:13;29.40;99.90
36444;DHT22;24692;45.642;13.806;2022-08-25T17:46:39;29.30;99.90
36444;DHT22;24692;45.642;13.806;2022-08-25T17:49:05;29.20;99.90
36444;DHT22;24692;45.642;13.806;2022-08-25T17:51:32;29.10;99.90